sensor_id;sensor_type;location;lat;lon;timestamp;P1;durP1;ratioP1;P2;durP2;ratioP2
80852;SDS011;70270;43.434;28.338;2023-06-24T00:00:06;31.00;;;21.45;;
80852;SDS011;70270;43.434;28.338;2023-06-24T00:02:55;32.28;;;22.42;;
80852;SDS011;70270;43.434;28.338;2023-06-24T00:05:40;31.67;;;21.02;;
80852;SDS011;70270;43.434;28.338;2023-06-24T00:08:24;31.77;;;22.33;;
80852;SDS011;70270;43.434;28.338;2023-06-24T00:11:18;30.50;;;21.70;;
80852;SDS011;70270;43.434;28.338;2023-06-24T00:14:02;30.92;;;22.35;;
80852;SDS011;70270;43.434;28.338;2023-06-24T00:16:47;32.55;;;23.88;;
80852;SDS011;70270;43.434;28.338;2023-06-24T00:19:35;31.15;;;23.55;;
80852;SDS011;70270;43.434;28.338;2023-06-24T00:22:22;38.10;;;25.48;;
80852;SDS011;70270;43.434;28.338;2023-06-24T00:25:07;37.33;;;24.83;;
80852;SDS011;70270;43.434;28.338;2023-06-24T00:27:52;35.08;;;26.13;;
80852;SDS011;70270;43.434;28.338;2023-06-24T00:30:36;43.20;;;28.25;;
80852;SDS011;70270;43.434;28.338;2023-06-24T00:33:21;45.38;;;29.67;;
80852;SDS011;70270;43.434;28.338;2023-06-24T00:36:05;40.25;;;28.63;;
80852;SDS011;70270;43.434;28.338;2023-06-24T00:38:55;38.60;;;25.48;;
80852;SDS011;70270;43.434;28.338;2023-06-24T00:41:40;41.58;;;26.38;;
80852;SDS011;70270;43.434;28.338;2023-06-24T00:44:25;40.30;;;27.00;;
80852;SDS011;70270;43.434;28.338;2023-06-24T00:47:09;46.80;;;31.38;;
80852;SDS011;70270;43.434;28.338;2023-06-24T00:49:54;40.97;;;27.90;;
80852;SDS011;70270;43.434;28.338;2023-06-24T00:52:40;39.00;;;26.77;;
80852;SDS011;70270;43.434;28.338;2023-06-24T00:55:26;41.95;;;28.55;;
80852;SDS011;70270;43.434;28.338;2023-06-24T00:58:13;42.78;;;31.92;;
80852;SDS011;70270;43.434;28.338;2023-06-24T01:01:00;47.08;;;30.50;;
80852;SDS011;70270;43.434;28.338;2023-06-24T01:03:46;41.60;;;29.80;;
80852;SDS011;70270;43.434;28.338;2023-06-24T01:06:31;38.83;;;27.88;;
80852;SDS011;70270;43.434;28.338;2023-06-24T01:09:16;39.78;;;26.55;;
80852;SDS011;70270;43.434;28.338;2023-06-24T01:12:01;40.78;;;30.10;;
80852;SDS011;70270;43.434;28.338;2023-06-24T01:14:48;40.70;;;29.98;;
80852;SDS011;70270;43.434;28.338;2023-06-24T01:17:37;44.10;;;32.00;;
80852;SDS011;70270;43.434;28.338;2023-06-24T01:20:45;44.28;;;33.10;;
80852;SDS011;70270;43.434;28.338;2023-06-24T01:29:46;40.92;;;26.55;;
80852;SDS011;70270;43.434;28.338;2023-06-24T01:32:43;39.60;;;25.48;;
80852;SDS011;70270;43.434;28.338;2023-06-24T01:35:32;38.20;;;26.92;;
80852;SDS011;70270;43.434;28.338;2023-06-24T01:38:31;37.80;;;25.35;;
80852;SDS011;70270;43.434;28.338;2023-06-24T01:41:21;37.95;;;27.08;;
80852;SDS011;70270;43.434;28.338;2023-06-24T01:44:12;40.00;;;26.45;;
80852;SDS011;70270;43.434;28.338;2023-06-24T01:47:00;37.65;;;26.77;;
80852;SDS011;70270;43.434;28.338;2023-06-24T01:49:48;36.38;;;24.92;;
80852;SDS011;70270;43.434;28.338;2023-06-24T01:52:38;32.20;;;24.25;;
80852;SDS011;70270;43.434;28.338;2023-06-24T01:55:25;32.97;;;24.23;;
80852;SDS011;70270;43.434;28.338;2023-06-24T01:58:12;36.60;;;24.05;;
80852;SDS011;70270;43.434;28.338;2023-06-24T02:00:59;34.65;;;24.42;;
80852;SDS011;70270;43.434;28.338;2023-06-24T02:03:45;32.40;;;22.95;;
80852;SDS011;70270;43.434;28.338;2023-06-24T02:06:32;29.60;;;22.48;;
80852;SDS011;70270;43.434;28.338;2023-06-24T02:09:17;31.45;;;22.83;;
80852;SDS011;70270;43.434;28.338;2023-06-24T02:12:03;33.35;;;23.20;;
80852;SDS011;70270;43.434;28.338;2023-06-24T02:14:54;33.58;;;23.40;;
80852;SDS011;70270;43.434;28.338;2023-06-24T02:17:42;31.83;;;24.67;;
80852;SDS011;70270;43.434;28.338;2023-06-24T02:20:28;29.95;;;21.55;;
80852;SDS011;70270;43.434;28.338;2023-06-24T02:23:15;26.42;;;20.42;;
80852;SDS011;70270;43.434;28.338;2023-06-24T02:26:00;30.52;;;21.67;;
80852;SDS011;70270;43.434;28.338;2023-06-24T02:28:47;30.10;;;23.13;;
80852;SDS011;70270;43.434;28.338;2023-06-24T02:34:18;33.10;;;23.63;;
80852;SDS011;70270;43.434;28.338;2023-06-24T02:37:03;30.65;;;22.95;;
80852;SDS011;70270;43.434;28.338;2023-06-24T02:39:47;31.90;;;22.63;;
80852;SDS011;70270;43.434;28.338;2023-06-24T02:42:32;33.28;;;21.05;;
80852;SDS011;70270;43.434;28.338;2023-06-24T02:45:17;30.67;;;20.80;;
80852;SDS011;70270;43.434;28.338;2023-06-24T02:48:02;27.48;;;20.40;;
80852;SDS011;70270;43.434;28.338;2023-06-24T02:53:32;28.52;;;20.38;;
80852;SDS011;70270;43.434;28.338;2023-06-24T02:56:19;25.02;;;18.88;;
80852;SDS011;70270;43.434;28.338;2023-06-24T02:59:07;27.13;;;18.35;;
80852;SDS011;70270;43.434;28.338;2023-06-24T03:01:51;31.65;;;18.65;;
80852;SDS011;70270;43.434;28.338;2023-06-24T03:04:38;25.10;;;18.65;;
80852;SDS011;70270;43.434;28.338;2023-06-24T03:07:23;28.08;;;18.30;;
80852;SDS011;70270;43.434;28.338;2023-06-24T03:10:09;25.33;;;18.73;;
80852;SDS011;70270;43.434;28.338;2023-06-24T03:15:45;24.30;;;17.45;;
80852;SDS011;70270;43.434;28.338;2023-06-24T03:18:30;24.55;;;18.58;;
80852;SDS011;70270;43.434;28.338;2023-06-24T03:21:15;29.08;;;17.15;;
80852;SDS011;70270;43.434;28.338;2023-06-24T03:23:59;24.38;;;18.45;;
80852;SDS011;70270;43.434;28.338;2023-06-24T03:26:45;23.92;;;17.95;;
80852;SDS011;70270;43.434;28.338;2023-06-24T03:29:31;24.85;;;15.95;;
80852;SDS011;70270;43.434;28.338;2023-06-24T03:32:27;24.33;;;17.52;;
80852;SDS011;70270;43.434;28.338;2023-06-24T03:35:14;24.83;;;18.67;;
80852;SDS011;70270;43.434;28.338;2023-06-24T03:38:00;23.40;;;16.95;;
80852;SDS011;70270;43.434;28.338;2023-06-24T03:40:44;23.67;;;16.38;;
80852;SDS011;70270;43.434;28.338;2023-06-24T03:43:33;23.20;;;16.38;;
80852;SDS011;70270;43.434;28.338;2023-06-24T03:46:21;23.80;;;15.30;;
80852;SDS011;70270;43.434;28.338;2023-06-24T03:49:05;25.40;;;17.20;;
80852;SDS011;70270;43.434;28.338;2023-06-24T03:51:50;23.33;;;16.58;;
80852;SDS011;70270;43.434;28.338;2023-06-24T03:54:35;21.10;;;15.65;;
80852;SDS011;70270;43.434;28.338;2023-06-24T03:57:24;22.08;;;15.98;;
80852;SDS011;70270;43.434;28.338;2023-06-24T04:00:08;20.55;;;15.25;;
80852;SDS011;70270;43.434;28.338;2023-06-24T04:03:00;21.25;;;15.32;;
80852;SDS011;70270;43.434;28.338;2023-06-24T04:05:45;22.23;;;16.13;;
80852;SDS011;70270;43.434;28.338;2023-06-24T04:08:29;17.95;;;15.10;;
80852;SDS011;70270;43.434;28.338;2023-06-24T04:11:14;20.42;;;15.75;;
80852;SDS011;70270;43.434;28.338;2023-06-24T04:13:59;20.83;;;15.65;;
80852;SDS011;70270;43.434;28.338;2023-06-24T04:16:46;21.38;;;14.98;;
80852;SDS011;70270;43.434;28.338;2023-06-24T04:19:31;19.50;;;14.57;;
80852;SDS011;70270;43.434;28.338;2023-06-24T04:22:15;20.45;;;15.23;;
80852;SDS011;70270;43.434;28.338;2023-06-24T04:25:00;17.80;;;14.25;;
80852;SDS011;70270;43.434;28.338;2023-06-24T04:27:45;22.17;;;16.48;;
80852;SDS011;70270;43.434;28.338;2023-06-24T04:30:30;24.20;;;16.70;;
80852;SDS011;70270;43.434;28.338;2023-06-24T04:33:15;27.98;;;16.23;;
80852;SDS011;70270;43.434;28.338;2023-06-24T04:36:00;39.33;;;24.55;;
80852;SDS011;70270;43.434;28.338;2023-06-24T04:38:47;128.40;;;82.93;;
80852;SDS011;70270;43.434;28.338;2023-06-24T04:41:32;25.38;;;17.40;;
80852;SDS011;70270;43.434;28.338;2023-06-24T04:44:16;23.08;;;16.88;;
80852;SDS011;70270;43.434;28.338;2023-06-24T04:47:01;22.98;;;16.38;;
80852;SDS011;70270;43.434;28.338;2023-06-24T04:49:45;67.35;;;48.65;;
80852;SDS011;70270;43.434;28.338;2023-06-24T04:52:30;49.63;;;34.03;;
80852;SDS011;70270;43.434;28.338;2023-06-24T04:55:14;138.32;;;94.47;;
80852;SDS011;70270;43.434;28.338;2023-06-24T04:58:00;21.33;;;14.65;;
80852;SDS011;70270;43.434;28.338;2023-06-24T05:00:44;20.92;;;14.88;;
80852;SDS011;70270;43.434;28.338;2023-06-24T05:03:32;22.27;;;14.82;;
80852;SDS011;70270;43.434;28.338;2023-06-24T05:06:16;19.65;;;14.65;;
80852;SDS011;70270;43.434;28.338;2023-06-24T05:09:01;18.60;;;14.18;;
80852;SDS011;70270;43.434;28.338;2023-06-24T05:11:45;20.05;;;13.43;;
80852;SDS011;70270;43.434;28.338;2023-06-24T05:14:30;21.75;;;14.40;;
80852;SDS011;70270;43.434;28.338;2023-06-24T05:17:15;26.17;;;14.65;;
80852;SDS011;70270;43.434;28.338;2023-06-24T05:19:59;20.52;;;12.75;;
80852;SDS011;70270;43.434;28.338;2023-06-24T05:22:44;28.83;;;14.75;;
80852;SDS011;70270;43.434;28.338;2023-06-24T05:25:28;17.55;;;14.20;;
80852;SDS011;70270;43.434;28.338;2023-06-24T05:28:13;22.08;;;14.15;;
80852;SDS011;70270;43.434;28.338;2023-06-24T05:30:57;20.80;;;14.40;;
80852;SDS011;70270;43.434;28.338;2023-06-24T05:33:41;18.23;;;14.68;;
80852;SDS011;70270;43.434;28.338;2023-06-24T05:36:26;22.25;;;14.10;;
80852;SDS011;70270;43.434;28.338;2023-06-24T05:39:14;21.20;;;13.90;;
80852;SDS011;70270;43.434;28.338;2023-06-24T05:41:59;23.13;;;14.07;;
80852;SDS011;70270;43.434;28.338;2023-06-24T05:44:43;18.35;;;12.88;;
80852;SDS011;70270;43.434;28.338;2023-06-24T05:47:28;18.42;;;13.15;;
80852;SDS011;70270;43.434;28.338;2023-06-24T05:50:12;17.40;;;13.43;;
80852;SDS011;70270;43.434;28.338;2023-06-24T05:52:58;21.35;;;12.65;;
80852;SDS011;70270;43.434;28.338;2023-06-24T05:55:42;16.25;;;12.35;;
80852;SDS011;70270;43.434;28.338;2023-06-24T05:58:27;17.27;;;12.77;;
80852;SDS011;70270;43.434;28.338;2023-06-24T06:01:12;22.58;;;13.63;;
80852;SDS011;70270;43.434;28.338;2023-06-24T06:03:56;18.48;;;14.85;;
80852;SDS011;70270;43.434;28.338;2023-06-24T06:06:41;20.08;;;13.25;;
80852;SDS011;70270;43.434;28.338;2023-06-24T06:09:25;17.52;;;13.02;;
80852;SDS011;70270;43.434;28.338;2023-06-24T06:12:11;20.90;;;12.23;;
80852;SDS011;70270;43.434;28.338;2023-06-24T06:14:56;20.80;;;13.55;;
80852;SDS011;70270;43.434;28.338;2023-06-24T06:17:40;19.65;;;13.55;;
80852;SDS011;70270;43.434;28.338;2023-06-24T06:20:29;18.27;;;12.85;;
80852;SDS011;70270;43.434;28.338;2023-06-24T06:23:14;21.48;;;12.27;;
80852;SDS011;70270;43.434;28.338;2023-06-24T06:25:59;16.90;;;12.73;;
80852;SDS011;70270;43.434;28.338;2023-06-24T06:28:44;16.90;;;12.05;;
80852;SDS011;70270;43.434;28.338;2023-06-24T06:31:28;22.52;;;13.85;;
80852;SDS011;70270;43.434;28.338;2023-06-24T06:34:13;23.98;;;12.77;;
80852;SDS011;70270;43.434;28.338;2023-06-24T06:36:58;18.35;;;12.15;;
80852;SDS011;70270;43.434;28.338;2023-06-24T06:39:43;19.85;;;13.13;;
80852;SDS011;70270;43.434;28.338;2023-06-24T06:42:28;19.02;;;12.55;;
80852;SDS011;70270;43.434;28.338;2023-06-24T06:45:13;20.17;;;12.50;;
80852;SDS011;70270;43.434;28.338;2023-06-24T06:47:58;20.17;;;11.68;;
80852;SDS011;70270;43.434;28.338;2023-06-24T06:50:43;18.63;;;11.93;;
80852;SDS011;70270;43.434;28.338;2023-06-24T06:53:29;16.02;;;10.98;;
80852;SDS011;70270;43.434;28.338;2023-06-24T06:56:17;16.75;;;11.52;;
80852;SDS011;70270;43.434;28.338;2023-06-24T06:59:11;14.25;;;11.07;;
80852;SDS011;70270;43.434;28.338;2023-06-24T07:01:55;18.48;;;11.90;;
80852;SDS011;70270;43.434;28.338;2023-06-24T07:04:40;19.30;;;12.85;;
80852;SDS011;70270;43.434;28.338;2023-06-24T07:07:25;17.42;;;11.30;;
80852;SDS011;70270;43.434;28.338;2023-06-24T07:10:10;17.80;;;12.38;;
80852;SDS011;70270;43.434;28.338;2023-06-24T07:12:55;15.48;;;12.60;;
80852;SDS011;70270;43.434;28.338;2023-06-24T07:15:42;16.70;;;12.45;;
80852;SDS011;70270;43.434;28.338;2023-06-24T07:18:26;17.50;;;12.65;;
80852;SDS011;70270;43.434;28.338;2023-06-24T07:21:14;16.63;;;11.40;;
80852;SDS011;70270;43.434;28.338;2023-06-24T07:23:58;25.52;;;13.05;;
80852;SDS011;70270;43.434;28.338;2023-06-24T07:26:43;19.13;;;11.55;;
80852;SDS011;70270;43.434;28.338;2023-06-24T07:29:27;20.80;;;11.25;;
80852;SDS011;70270;43.434;28.338;2023-06-24T07:32:12;18.35;;;12.90;;
80852;SDS011;70270;43.434;28.338;2023-06-24T07:35:04;16.42;;;11.13;;
80852;SDS011;70270;43.434;28.338;2023-06-24T07:37:49;20.10;;;11.98;;
80852;SDS011;70270;43.434;28.338;2023-06-24T07:40:38;15.52;;;11.90;;
80852;SDS011;70270;43.434;28.338;2023-06-24T07:43:23;14.00;;;10.73;;
80852;SDS011;70270;43.434;28.338;2023-06-24T07:46:07;17.48;;;11.82;;
80852;SDS011;70270;43.434;28.338;2023-06-24T07:48:52;15.07;;;11.23;;
80852;SDS011;70270;43.434;28.338;2023-06-24T07:51:36;14.38;;;10.95;;
80852;SDS011;70270;43.434;28.338;2023-06-24T07:54:21;16.73;;;11.25;;
80852;SDS011;70270;43.434;28.338;2023-06-24T07:57:06;15.95;;;11.52;;
80852;SDS011;70270;43.434;28.338;2023-06-24T07:59:50;15.57;;;11.50;;
80852;SDS011;70270;43.434;28.338;2023-06-24T08:02:36;15.68;;;10.55;;
80852;SDS011;70270;43.434;28.338;2023-06-24T08:05:20;18.77;;;12.23;;
80852;SDS011;70270;43.434;28.338;2023-06-24T08:08:05;18.48;;;11.50;;
80852;SDS011;70270;43.434;28.338;2023-06-24T08:10:50;16.98;;;11.73;;
80852;SDS011;70270;43.434;28.338;2023-06-24T08:13:34;15.98;;;9.90;;
80852;SDS011;70270;43.434;28.338;2023-06-24T08:16:19;16.20;;;10.60;;
80852;SDS011;70270;43.434;28.338;2023-06-24T08:19:04;18.20;;;10.50;;
80852;SDS011;70270;43.434;28.338;2023-06-24T08:21:48;14.88;;;10.52;;
80852;SDS011;70270;43.434;28.338;2023-06-24T08:24:33;16.17;;;10.73;;
80852;SDS011;70270;43.434;28.338;2023-06-24T08:27:17;12.18;;;9.98;;
80852;SDS011;70270;43.434;28.338;2023-06-24T08:30:02;16.08;;;10.93;;
80852;SDS011;70270;43.434;28.338;2023-06-24T08:32:48;14.35;;;9.43;;
80852;SDS011;70270;43.434;28.338;2023-06-24T08:35:32;19.02;;;10.80;;
80852;SDS011;70270;43.434;28.338;2023-06-24T08:38:16;16.58;;;10.35;;
80852;SDS011;70270;43.434;28.338;2023-06-24T08:41:01;16.13;;;10.63;;
80852;SDS011;70270;43.434;28.338;2023-06-24T08:43:45;15.82;;;10.63;;
80852;SDS011;70270;43.434;28.338;2023-06-24T08:46:30;14.45;;;10.05;;
80852;SDS011;70270;43.434;28.338;2023-06-24T08:49:22;14.80;;;9.90;;
80852;SDS011;70270;43.434;28.338;2023-06-24T08:52:10;16.25;;;9.40;;
80852;SDS011;70270;43.434;28.338;2023-06-24T08:54:58;12.95;;;9.00;;
80852;SDS011;70270;43.434;28.338;2023-06-24T08:57:46;13.95;;;9.23;;
80852;SDS011;70270;43.434;28.338;2023-06-24T09:00:30;16.20;;;9.65;;
80852;SDS011;70270;43.434;28.338;2023-06-24T09:03:14;13.32;;;9.52;;
80852;SDS011;70270;43.434;28.338;2023-06-24T09:05:59;13.20;;;9.65;;
80852;SDS011;70270;43.434;28.338;2023-06-24T09:08:53;12.40;;;9.13;;
80852;SDS011;70270;43.434;28.338;2023-06-24T09:11:38;14.52;;;9.35;;
80852;SDS011;70270;43.434;28.338;2023-06-24T09:14:26;18.17;;;8.75;;
80852;SDS011;70270;43.434;28.338;2023-06-24T09:17:15;20.23;;;10.48;;
80852;SDS011;70270;43.434;28.338;2023-06-24T09:20:03;14.13;;;9.77;;
80852;SDS011;70270;43.434;28.338;2023-06-24T09:22:51;14.43;;;10.75;;
80852;SDS011;70270;43.434;28.338;2023-06-24T09:25:35;13.63;;;9.30;;
80852;SDS011;70270;43.434;28.338;2023-06-24T09:28:20;14.13;;;10.30;;
80852;SDS011;70270;43.434;28.338;2023-06-24T09:31:08;20.15;;;9.77;;
80852;SDS011;70270;43.434;28.338;2023-06-24T09:33:56;12.15;;;8.88;;
80852;SDS011;70270;43.434;28.338;2023-06-24T09:36:43;16.08;;;9.13;;
80852;SDS011;70270;43.434;28.338;2023-06-24T09:39:28;12.57;;;7.93;;
80852;SDS011;70270;43.434;28.338;2023-06-24T09:42:20;13.30;;;8.07;;
80852;SDS011;70270;43.434;28.338;2023-06-24T09:45:07;13.48;;;9.35;;
80852;SDS011;70270;43.434;28.338;2023-06-24T09:47:52;15.73;;;9.23;;
80852;SDS011;70270;43.434;28.338;2023-06-24T09:53:22;12.90;;;8.15;;
80852;SDS011;70270;43.434;28.338;2023-06-24T09:56:07;14.13;;;9.35;;
80852;SDS011;70270;43.434;28.338;2023-06-24T09:58:54;13.68;;;9.23;;
80852;SDS011;70270;43.434;28.338;2023-06-24T10:01:43;18.23;;;9.90;;
80852;SDS011;70270;43.434;28.338;2023-06-24T10:04:28;12.90;;;9.55;;
80852;SDS011;70270;43.434;28.338;2023-06-24T10:07:14;15.50;;;9.07;;
80852;SDS011;70270;43.434;28.338;2023-06-24T10:10:00;15.05;;;9.95;;
80852;SDS011;70270;43.434;28.338;2023-06-24T10:12:47;15.77;;;9.32;;
80852;SDS011;70270;43.434;28.338;2023-06-24T10:15:31;14.65;;;9.32;;
80852;SDS011;70270;43.434;28.338;2023-06-24T10:18:33;17.98;;;10.60;;
80852;SDS011;70270;43.434;28.338;2023-06-24T10:21:19;12.75;;;9.05;;
80852;SDS011;70270;43.434;28.338;2023-06-24T10:24:03;13.25;;;9.77;;
80852;SDS011;70270;43.434;28.338;2023-06-24T10:26:48;10.98;;;8.68;;
80852;SDS011;70270;43.434;28.338;2023-06-24T10:29:39;16.30;;;9.02;;
80852;SDS011;70270;43.434;28.338;2023-06-24T10:32:23;13.13;;;9.00;;
80852;SDS011;70270;43.434;28.338;2023-06-24T10:35:20;16.17;;;9.70;;
80852;SDS011;70270;43.434;28.338;2023-06-24T10:38:09;14.65;;;8.95;;
80852;SDS011;70270;43.434;28.338;2023-06-24T10:40:54;16.98;;;9.40;;
80852;SDS011;70270;43.434;28.338;2023-06-24T10:43:38;13.30;;;9.60;;
80852;SDS011;70270;43.434;28.338;2023-06-24T10:46:23;14.35;;;8.88;;
80852;SDS011;70270;43.434;28.338;2023-06-24T10:49:11;13.68;;;9.63;;
80852;SDS011;70270;43.434;28.338;2023-06-24T10:51:59;12.98;;;8.85;;
80852;SDS011;70270;43.434;28.338;2023-06-24T10:54:43;13.60;;;8.98;;
80852;SDS011;70270;43.434;28.338;2023-06-24T10:57:28;14.88;;;9.07;;
80852;SDS011;70270;43.434;28.338;2023-06-24T11:00:12;14.25;;;8.68;;
80852;SDS011;70270;43.434;28.338;2023-06-24T11:03:07;12.70;;;9.15;;
80852;SDS011;70270;43.434;28.338;2023-06-24T11:05:53;18.92;;;9.52;;
80852;SDS011;70270;43.434;28.338;2023-06-24T11:08:44;13.68;;;8.60;;
80852;SDS011;70270;43.434;28.338;2023-06-24T11:11:31;14.40;;;8.82;;
80852;SDS011;70270;43.434;28.338;2023-06-24T11:14:21;14.10;;;9.35;;
80852;SDS011;70270;43.434;28.338;2023-06-24T11:17:06;11.57;;;8.35;;
80852;SDS011;70270;43.434;28.338;2023-06-24T11:19:52;14.95;;;9.10;;
80852;SDS011;70270;43.434;28.338;2023-06-24T11:22:40;14.18;;;9.23;;
80852;SDS011;70270;43.434;28.338;2023-06-24T11:25:26;13.25;;;9.38;;
80852;SDS011;70270;43.434;28.338;2023-06-24T11:28:19;14.82;;;9.02;;
80852;SDS011;70270;43.434;28.338;2023-06-24T11:31:07;14.25;;;9.02;;
80852;SDS011;70270;43.434;28.338;2023-06-24T11:33:54;14.13;;;9.35;;
80852;SDS011;70270;43.434;28.338;2023-06-24T11:36:38;12.82;;;9.60;;
80852;SDS011;70270;43.434;28.338;2023-06-24T11:39:23;15.18;;;9.50;;
80852;SDS011;70270;43.434;28.338;2023-06-24T11:42:09;15.68;;;9.07;;
80852;SDS011;70270;43.434;28.338;2023-06-24T11:44:58;12.45;;;9.88;;
80852;SDS011;70270;43.434;28.338;2023-06-24T11:47:46;12.07;;;8.48;;
80852;SDS011;70270;43.434;28.338;2023-06-24T11:50:32;14.32;;;9.52;;
80852;SDS011;70270;43.434;28.338;2023-06-24T11:53:16;15.23;;;9.52;;
80852;SDS011;70270;43.434;28.338;2023-06-24T11:56:01;14.40;;;9.60;;
80852;SDS011;70270;43.434;28.338;2023-06-24T11:58:47;17.88;;;9.57;;
80852;SDS011;70270;43.434;28.338;2023-06-24T12:01:35;12.25;;;9.30;;
80852;SDS011;70270;43.434;28.338;2023-06-24T12:04:29;13.10;;;8.82;;
80852;SDS011;70270;43.434;28.338;2023-06-24T12:07:15;14.88;;;10.15;;
80852;SDS011;70270;43.434;28.338;2023-06-24T12:09:59;15.23;;;8.55;;
80852;SDS011;70270;43.434;28.338;2023-06-24T12:12:44;17.10;;;9.25;;
80852;SDS011;70270;43.434;28.338;2023-06-24T12:15:28;16.73;;;9.20;;
80852;SDS011;70270;43.434;28.338;2023-06-24T12:18:13;15.82;;;8.93;;
80852;SDS011;70270;43.434;28.338;2023-06-24T12:20:58;13.18;;;9.10;;
80852;SDS011;70270;43.434;28.338;2023-06-24T12:23:43;13.35;;;9.30;;
80852;SDS011;70270;43.434;28.338;2023-06-24T12:26:27;14.35;;;8.82;;
80852;SDS011;70270;43.434;28.338;2023-06-24T12:29:11;13.57;;;8.80;;
80852;SDS011;70270;43.434;28.338;2023-06-24T12:31:56;14.52;;;9.20;;
80852;SDS011;70270;43.434;28.338;2023-06-24T12:34:41;14.52;;;9.13;;
80852;SDS011;70270;43.434;28.338;2023-06-24T12:37:28;16.00;;;8.60;;
80852;SDS011;70270;43.434;28.338;2023-06-24T12:40:13;14.13;;;9.35;;
80852;SDS011;70270;43.434;28.338;2023-06-24T12:42:58;12.15;;;8.68;;
80852;SDS011;70270;43.434;28.338;2023-06-24T12:45:43;14.35;;;8.63;;
80852;SDS011;70270;43.434;28.338;2023-06-24T12:48:28;13.80;;;9.27;;
80852;SDS011;70270;43.434;28.338;2023-06-24T12:51:12;16.17;;;8.75;;
80852;SDS011;70270;43.434;28.338;2023-06-24T12:53:57;13.30;;;8.57;;
80852;SDS011;70270;43.434;28.338;2023-06-24T12:56:41;12.35;;;8.95;;
80852;SDS011;70270;43.434;28.338;2023-06-24T12:59:26;13.20;;;8.82;;
80852;SDS011;70270;43.434;28.338;2023-06-24T13:02:11;13.25;;;8.93;;
80852;SDS011;70270;43.434;28.338;2023-06-24T13:04:55;13.30;;;8.50;;
80852;SDS011;70270;43.434;28.338;2023-06-24T13:07:39;14.70;;;8.68;;
80852;SDS011;70270;43.434;28.338;2023-06-24T13:10:24;14.40;;;8.02;;
80852;SDS011;70270;43.434;28.338;2023-06-24T13:13:08;13.27;;;8.90;;
80852;SDS011;70270;43.434;28.338;2023-06-24T13:15:53;14.60;;;8.27;;
80852;SDS011;70270;43.434;28.338;2023-06-24T13:18:37;12.65;;;8.07;;
80852;SDS011;70270;43.434;28.338;2023-06-24T13:21:22;11.18;;;8.13;;
80852;SDS011;70270;43.434;28.338;2023-06-24T13:24:07;11.68;;;8.10;;
80852;SDS011;70270;43.434;28.338;2023-06-24T13:26:51;15.85;;;8.25;;
80852;SDS011;70270;43.434;28.338;2023-06-24T13:29:36;13.45;;;8.50;;
80852;SDS011;70270;43.434;28.338;2023-06-24T13:32:21;12.45;;;7.95;;
80852;SDS011;70270;43.434;28.338;2023-06-24T13:35:05;13.63;;;8.20;;
80852;SDS011;70270;43.434;28.338;2023-06-24T13:37:50;12.50;;;7.60;;
80852;SDS011;70270;43.434;28.338;2023-06-24T13:40:35;16.50;;;8.85;;
80852;SDS011;70270;43.434;28.338;2023-06-24T13:43:19;12.82;;;7.72;;
80852;SDS011;70270;43.434;28.338;2023-06-24T13:46:04;14.88;;;8.35;;
80852;SDS011;70270;43.434;28.338;2023-06-24T13:48:48;12.82;;;8.00;;
80852;SDS011;70270;43.434;28.338;2023-06-24T13:51:33;13.00;;;8.55;;
80852;SDS011;70270;43.434;28.338;2023-06-24T13:54:18;14.55;;;9.35;;
80852;SDS011;70270;43.434;28.338;2023-06-24T13:57:02;11.52;;;8.73;;
80852;SDS011;70270;43.434;28.338;2023-06-24T13:59:47;10.65;;;8.07;;
80852;SDS011;70270;43.434;28.338;2023-06-24T14:02:31;15.90;;;8.85;;
80852;SDS011;70270;43.434;28.338;2023-06-24T14:05:16;14.27;;;8.98;;
80852;SDS011;70270;43.434;28.338;2023-06-24T14:08:00;12.82;;;8.95;;
80852;SDS011;70270;43.434;28.338;2023-06-24T14:10:45;16.85;;;9.10;;
80852;SDS011;70270;43.434;28.338;2023-06-24T14:13:32;16.20;;;8.55;;
80852;SDS011;70270;43.434;28.338;2023-06-24T14:16:17;13.77;;;8.55;;
80852;SDS011;70270;43.434;28.338;2023-06-24T14:19:01;11.93;;;8.45;;
80852;SDS011;70270;43.434;28.338;2023-06-24T14:21:48;18.23;;;9.65;;
80852;SDS011;70270;43.434;28.338;2023-06-24T14:24:33;13.48;;;9.07;;
80852;SDS011;70270;43.434;28.338;2023-06-24T14:27:17;12.00;;;8.30;;
80852;SDS011;70270;43.434;28.338;2023-06-24T14:30:01;12.00;;;8.05;;
80852;SDS011;70270;43.434;28.338;2023-06-24T14:32:46;14.60;;;9.00;;
80852;SDS011;70270;43.434;28.338;2023-06-24T14:35:30;11.88;;;8.35;;
80852;SDS011;70270;43.434;28.338;2023-06-24T14:38:15;14.93;;;8.90;;
80852;SDS011;70270;43.434;28.338;2023-06-24T14:40:59;12.38;;;8.70;;
80852;SDS011;70270;43.434;28.338;2023-06-24T14:43:43;16.33;;;8.88;;
80852;SDS011;70270;43.434;28.338;2023-06-24T14:46:28;12.43;;;8.18;;
80852;SDS011;70270;43.434;28.338;2023-06-24T14:49:12;17.52;;;9.23;;
80852;SDS011;70270;43.434;28.338;2023-06-24T14:51:57;10.80;;;8.68;;
80852;SDS011;70270;43.434;28.338;2023-06-24T14:54:41;16.88;;;9.15;;
80852;SDS011;70270;43.434;28.338;2023-06-24T14:57:26;14.85;;;8.82;;
80852;SDS011;70270;43.434;28.338;2023-06-24T15:00:11;12.35;;;8.40;;
80852;SDS011;70270;43.434;28.338;2023-06-24T15:02:56;13.57;;;8.35;;
80852;SDS011;70270;43.434;28.338;2023-06-24T15:05:41;14.50;;;8.90;;
80852;SDS011;70270;43.434;28.338;2023-06-24T15:08:25;14.70;;;7.97;;
80852;SDS011;70270;43.434;28.338;2023-06-24T15:11:10;15.98;;;9.20;;
80852;SDS011;70270;43.434;28.338;2023-06-24T15:13:56;13.18;;;9.23;;
80852;SDS011;70270;43.434;28.338;2023-06-24T15:16:40;15.90;;;9.18;;
80852;SDS011;70270;43.434;28.338;2023-06-24T15:19:25;12.40;;;8.73;;
80852;SDS011;70270;43.434;28.338;2023-06-24T15:22:09;14.45;;;9.55;;
80852;SDS011;70270;43.434;28.338;2023-06-24T15:24:54;12.85;;;8.20;;
80852;SDS011;70270;43.434;28.338;2023-06-24T15:27:38;14.80;;;8.70;;
80852;SDS011;70270;43.434;28.338;2023-06-24T15:30:22;12.43;;;8.82;;
80852;SDS011;70270;43.434;28.338;2023-06-24T15:33:09;11.57;;;9.15;;
80852;SDS011;70270;43.434;28.338;2023-06-24T15:35:53;16.05;;;9.15;;
80852;SDS011;70270;43.434;28.338;2023-06-24T15:38:38;15.07;;;9.68;;
80852;SDS011;70270;43.434;28.338;2023-06-24T15:41:22;15.90;;;9.10;;
80852;SDS011;70270;43.434;28.338;2023-06-24T15:44:07;16.52;;;9.52;;
80852;SDS011;70270;43.434;28.338;2023-06-24T15:46:51;14.10;;;8.65;;
80852;SDS011;70270;43.434;28.338;2023-06-24T15:49:37;14.25;;;9.05;;
80852;SDS011;70270;43.434;28.338;2023-06-24T15:55:06;13.27;;;9.13;;
80852;SDS011;70270;43.434;28.338;2023-06-24T15:57:52;12.18;;;8.63;;
80852;SDS011;70270;43.434;28.338;2023-06-24T16:00:38;18.77;;;8.95;;
80852;SDS011;70270;43.434;28.338;2023-06-24T16:03:22;13.25;;;8.55;;
80852;SDS011;70270;43.434;28.338;2023-06-24T16:06:07;12.20;;;9.27;;
80852;SDS011;70270;43.434;28.338;2023-06-24T16:08:51;15.68;;;8.73;;
80852;SDS011;70270;43.434;28.338;2023-06-24T16:11:36;13.65;;;9.20;;
80852;SDS011;70270;43.434;28.338;2023-06-24T16:14:20;15.15;;;9.05;;
80852;SDS011;70270;43.434;28.338;2023-06-24T16:17:05;20.52;;;10.93;;
80852;SDS011;70270;43.434;28.338;2023-06-24T16:19:49;19.27;;;9.05;;